Concord, Georgia
Current Conditions -  °F | °C
As of 2:55 PM on Friday 24 Oct 2014 (Local Time) from K6A2 Reporting Station
Clear Clear  
Wind Chill: 72°   Ceiling: Unl
Heat Index: 72°   Visibility: 10mi
Dew Point: 45°   Wind: 0mph
Humidity: 38%   Direction: NA
Pressure: 30.01"   Gusts: NA
Location:  33.09°N, 84.44°W
Report Text: K6A2 241855Z AUTO 00000KT 10SM CLR 22/07 A3001 RMK AO2
Loading
Personal Weather Stations






























Interactive Weather Map
Tropical Storm Tracking
New forecast layout! Learn more

10-Day Weather Forecast

Advertisements
Track Severe Weather on mobile